createdAt,value
2018-03-18T00:00:26.437Z,982.13
2018-03-18T00:01:26.606Z,982.20
2018-03-18T00:02:26.783Z,982.07
2018-03-18T00:03:26.936Z,982.11
2018-03-18T00:04:27.110Z,982.04
2018-03-18T00:05:27.279Z,982.14
2018-03-18T00:06:27.443Z,982.08
2018-03-18T00:07:27.609Z,982.25
2018-03-18T00:08:27.780Z,982.09
2018-03-18T00:09:27.947Z,982.17
2018-03-18T00:10:28.115Z,982.14
2018-03-18T00:11:28.291Z,982.27
2018-03-18T00:12:28.452Z,982.04
2018-03-18T00:13:28.622Z,982.10
2018-03-18T00:14:28.788Z,982.21
2018-03-18T00:15:28.949Z,981.99
2018-03-18T00:16:29.121Z,982.16
2018-03-18T00:17:29.281Z,982.02
2018-03-18T00:18:29.455Z,982.12
2018-03-18T00:19:29.664Z,982.05
2018-03-18T00:20:29.804Z,981.97
2018-03-18T00:21:29.957Z,982.02
2018-03-18T00:22:30.120Z,982.04
2018-03-18T00:23:30.298Z,982.07
2018-03-18T00:24:30.469Z,982.03
2018-03-18T00:25:30.636Z,982.19
2018-03-18T00:26:30.805Z,982.25
2018-03-18T00:27:30.989Z,982.35
2018-03-18T00:28:31.181Z,981.87
2018-03-18T00:29:31.343Z,982.21
2018-03-18T00:30:31.509Z,982.12
2018-03-18T00:31:31.680Z,982.22
2018-03-18T00:32:31.847Z,982.09
2018-03-18T00:33:32.037Z,982.10
2018-03-18T00:34:32.191Z,982.08
2018-03-18T00:35:32.365Z,981.91
2018-03-18T00:36:32.538Z,982.83
2018-03-18T00:37:32.703Z,982.09
2018-03-18T00:38:32.867Z,982.23
2018-03-18T00:39:33.043Z,982.08
2018-03-18T00:40:33.208Z,982.10
2018-03-18T00:41:33.377Z,982.06
2018-03-18T00:42:33.542Z,982.03
2018-03-18T00:43:33.710Z,982.24
2018-03-18T00:44:33.879Z,982.11
2018-03-18T00:45:34.048Z,981.97
2018-03-18T00:46:34.214Z,982.13
2018-03-18T00:47:34.433Z,982.06
2018-03-18T00:48:34.561Z,982.07
2018-03-18T00:49:34.732Z,982.02
2018-03-18T00:50:34.900Z,982.08
2018-03-18T00:51:35.072Z,982.12
2018-03-18T00:52:35.235Z,982.15
2018-03-18T00:53:35.411Z,982.10
2018-03-18T00:54:35.590Z,982.10
2018-03-18T00:55:35.781Z,982.14
2018-03-18T00:56:35.921Z,982.09
2018-03-18T00:57:36.091Z,982.14
2018-03-18T00:58:36.270Z,981.99
2018-03-18T00:59:36.429Z,982.03
2018-03-18T01:00:36.601Z,982.08
2018-03-18T01:01:36.769Z,982.12
2018-03-18T01:02:36.943Z,982.28
2018-03-18T01:03:37.347Z,982.18
2018-03-18T01:04:37.276Z,982.16
2018-03-18T01:05:37.447Z,982.35
2018-03-18T01:07:37.777Z,982.12
2018-03-18T01:08:37.946Z,982.40
2018-03-18T01:09:38.114Z,982.32
2018-03-18T01:10:38.287Z,981.88
2018-03-18T01:11:38.463Z,982.11
2018-03-18T01:12:38.628Z,982.05
2018-03-18T01:13:38.792Z,982.30
2018-03-18T01:14:38.960Z,982.12
2018-03-18T01:15:39.127Z,982.34
2018-03-18T01:16:39.296Z,982.02
2018-03-18T01:17:39.467Z,982.12
2018-03-18T01:18:39.639Z,982.14
2018-03-18T01:19:39.810Z,982.15
2018-03-18T01:20:39.977Z,982.09
2018-03-18T01:21:40.158Z,982.16
2018-03-18T01:22:40.326Z,982.16
2018-03-18T01:23:40.493Z,982.08
2018-03-18T01:24:40.659Z,981.97
2018-03-18T01:25:40.828Z,982.09
2018-03-18T01:26:41.000Z,982.05
2018-03-18T01:27:41.173Z,982.22
2018-03-18T01:28:41.343Z,982.25
2018-03-18T01:29:41.508Z,982.10
2018-03-18T01:30:41.674Z,982.13
2018-03-18T01:31:41.848Z,982.01
2018-03-18T01:32:42.012Z,982.18
2018-03-18T01:33:42.181Z,982.09
2018-03-18T01:34:42.361Z,982.23
2018-03-18T01:35:42.525Z,982.23
2018-03-18T01:36:42.690Z,982.12
2018-03-18T01:37:42.859Z,982.16
2018-03-18T01:38:43.025Z,981.98
2018-03-18T01:39:43.445Z,982.11
2018-03-18T01:40:43.366Z,982.11
2018-03-18T01:41:43.536Z,982.25
2018-03-18T01:42:43.716Z,982.01
2018-03-18T01:43:43.883Z,982.05
2018-03-18T01:44:44.042Z,981.99
2018-03-18T01:45:44.212Z,982.06
2018-03-18T01:46:44.380Z,981.98
2018-03-18T01:47:44.548Z,982.10
2018-03-18T01:48:44.718Z,982.09
2018-03-18T01:49:44.885Z,982.09
2018-03-18T01:50:45.064Z,982.11
2018-03-18T01:51:45.229Z,982.01
2018-03-18T01:52:45.399Z,981.98
2018-03-18T01:53:45.565Z,981.88
2018-03-18T01:54:45.732Z,981.95
2018-03-18T01:55:45.912Z,981.90
2018-03-18T01:56:46.071Z,981.90
2018-03-18T01:57:46.236Z,981.93
2018-03-18T01:58:46.405Z,981.97
2018-03-18T01:59:46.584Z,982.02
2018-03-18T02:00:46.743Z,981.99
2018-03-18T02:01:46.904Z,982.01
2018-03-18T02:02:47.080Z,981.89
2018-03-18T02:03:47.244Z,981.83
2018-03-18T02:04:47.426Z,982.06
2018-03-18T02:05:47.594Z,982.04
2018-03-18T02:06:47.756Z,982.14
2018-03-18T02:07:47.929Z,982.01
2018-03-18T02:08:48.093Z,982.10
2018-03-18T02:09:48.264Z,981.94
2018-03-18T02:10:48.442Z,982.08
2018-03-18T02:11:48.594Z,982.03
2018-03-18T02:12:48.768Z,982.01
2018-03-18T02:13:48.932Z,981.95
2018-03-18T02:14:49.107Z,982.02
2018-03-18T02:15:49.276Z,982.03
2018-03-18T02:16:49.439Z,982.08
2018-03-18T02:17:49.617Z,981.78
2018-03-18T02:18:50.023Z,982.00
2018-03-18T02:19:49.944Z,982.05
2018-03-18T02:20:50.116Z,982.08
2018-03-18T02:21:50.281Z,982.13
2018-03-18T02:22:50.456Z,982.11
2018-03-18T02:23:50.626Z,982.01
2018-03-18T02:24:50.796Z,982.07
2018-03-18T02:25:50.968Z,982.18
2018-03-18T02:26:51.148Z,982.18
2018-03-18T02:27:51.322Z,982.29
2018-03-18T02:28:51.482Z,982.19
2018-03-18T02:29:51.660Z,982.12
2018-03-18T02:30:51.821Z,982.10
2018-03-18T02:31:51.991Z,982.15
2018-03-18T02:32:52.158Z,982.14
2018-03-18T02:33:52.328Z,982.09
2018-03-18T02:34:52.493Z,982.11
2018-03-18T02:35:52.661Z,982.16
2018-03-18T02:36:52.830Z,982.15
2018-03-18T02:37:53.001Z,982.20
2018-03-18T02:38:53.173Z,982.15
2018-03-18T02:39:53.331Z,982.16
2018-03-18T02:40:53.538Z,982.06
2018-03-18T02:41:53.665Z,982.15
2018-03-18T02:42:53.837Z,982.14
2018-03-18T02:43:54.007Z,982.17
2018-03-18T02:44:54.171Z,982.14
2018-03-18T02:45:54.339Z,982.07
2018-03-18T02:46:54.522Z,982.11
2018-03-18T02:47:54.693Z,982.00
2018-03-18T02:48:54.862Z,982.12
2018-03-18T02:49:55.029Z,982.20
2018-03-18T02:50:55.193Z,982.19
2018-03-18T02:51:55.367Z,982.12
2018-03-18T02:52:55.535Z,982.19
2018-03-18T02:53:55.706Z,982.20
2018-03-18T02:54:55.884Z,982.03
2018-03-18T02:55:56.048Z,982.02
2018-03-18T02:56:56.217Z,982.17
2018-03-18T02:57:56.391Z,982.06
2018-03-18T02:58:56.561Z,982.14
2018-03-18T02:59:56.729Z,982.10
2018-03-18T03:00:56.897Z,982.06
2018-03-18T03:01:57.064Z,981.92
2018-03-18T03:02:57.241Z,982.04
2018-03-18T03:03:57.398Z,982.52
2018-03-18T03:04:57.567Z,982.19
2018-03-18T03:05:57.737Z,982.06
2018-03-18T03:06:57.906Z,982.01
2018-03-18T03:07:58.078Z,982.18
2018-03-18T03:08:58.247Z,981.98
2018-03-18T03:09:58.415Z,982.04
2018-03-18T03:10:58.590Z,982.10
2018-03-18T03:11:58.764Z,982.08
2018-03-18T03:12:58.921Z,981.97
2018-03-18T03:13:59.086Z,982.20
2018-03-18T03:14:59.255Z,982.05
2018-03-18T03:15:59.424Z,982.07
2018-03-18T03:16:59.593Z,981.99
2018-03-18T03:17:59.764Z,982.10
2018-03-18T03:18:59.938Z,982.01
2018-03-18T03:20:00.102Z,982.02
2018-03-18T03:21:00.278Z,982.03
2018-03-18T03:22:00.448Z,982.14
2018-03-18T03:23:00.615Z,982.18
2018-03-18T03:24:00.789Z,981.97
2018-03-18T03:25:00.953Z,982.08
2018-03-18T03:26:01.121Z,982.06
2018-03-18T03:27:01.290Z,982.01
2018-03-18T03:28:01.464Z,981.93
2018-03-18T03:29:01.629Z,982.04
2018-03-18T03:30:01.800Z,982.13
2018-03-18T03:31:01.978Z,982.14
2018-03-18T03:32:02.145Z,982.11
2018-03-18T03:33:02.305Z,982.04
2018-03-18T03:34:02.478Z,981.94
2018-03-18T03:35:02.643Z,982.17
2018-03-18T03:36:02.816Z,982.13
2018-03-18T03:37:02.988Z,982.12
2018-03-18T03:38:03.147Z,982.13
2018-03-18T03:39:03.318Z,981.99
2018-03-18T03:40:03.497Z,982.03
2018-03-18T03:41:03.655Z,982.22
2018-03-18T03:42:03.821Z,982.08
2018-03-18T03:43:03.987Z,982.18
2018-03-18T03:44:04.159Z,982.19
2018-03-18T03:45:04.328Z,982.01
2018-03-18T03:46:04.501Z,982.41
2018-03-18T03:47:04.671Z,982.25
2018-03-18T03:48:04.838Z,982.27
2018-03-18T03:49:05.024Z,982.23
2018-03-18T03:50:05.173Z,981.99
2018-03-18T03:51:05.341Z,982.13
2018-03-18T03:52:05.511Z,982.24
2018-03-18T03:53:05.672Z,982.15
2018-03-18T03:54:05.852Z,982.15
2018-03-18T03:55:06.016Z,982.11
2018-03-18T03:56:06.193Z,982.20
2018-03-18T03:57:06.351Z,982.28
2018-03-18T03:58:06.523Z,982.11
2018-03-18T03:59:06.692Z,982.13
2018-03-18T04:00:06.856Z,982.14
2018-03-18T04:01:07.029Z,982.15
2018-03-18T04:02:07.196Z,982.12
2018-03-18T04:03:07.363Z,982.16
2018-03-18T04:04:07.536Z,982.20
2018-03-18T04:05:07.714Z,982.18
2018-03-18T04:06:07.877Z,982.10
2018-03-18T04:07:08.043Z,982.07
2018-03-18T04:08:08.216Z,982.20
2018-03-18T04:09:08.393Z,982.03
2018-03-18T04:10:08.553Z,982.17
2018-03-18T04:11:08.724Z,982.12
2018-03-18T04:12:08.891Z,982.08
2018-03-18T04:13:09.066Z,981.96
2018-03-18T04:14:09.226Z,982.20
2018-03-18T04:15:09.404Z,982.21
2018-03-18T04:16:09.564Z,982.43
2018-03-18T04:17:09.725Z,982.35
2018-03-18T04:18:09.903Z,982.13
2018-03-18T04:19:10.070Z,982.12
2018-03-18T04:20:10.231Z,982.19
2018-03-18T04:21:10.396Z,982.40
2018-03-18T04:22:10.569Z,982.12
2018-03-18T04:23:10.735Z,982.08
2018-03-18T04:24:10.902Z,982.13
2018-03-18T04:25:11.071Z,982.17
2018-03-18T04:26:11.235Z,982.34
2018-03-18T04:27:11.409Z,982.18
2018-03-18T04:28:11.577Z,982.33
2018-03-18T04:29:11.746Z,982.25
2018-03-18T04:30:11.913Z,982.13
2018-03-18T04:31:12.084Z,982.21
2018-03-18T04:32:12.253Z,981.98
2018-03-18T04:33:12.417Z,982.15
2018-03-18T04:34:12.592Z,982.17
2018-03-18T04:35:12.752Z,982.22
2018-03-18T04:36:12.923Z,982.12
2018-03-18T04:37:13.095Z,982.26
2018-03-18T04:38:13.255Z,982.27
2018-03-18T04:39:13.434Z,982.25
2018-03-18T04:40:13.599Z,982.21
2018-03-18T04:41:13.766Z,982.08
2018-03-18T04:42:13.942Z,982.25
2018-03-18T04:43:14.091Z,982.15
2018-03-18T04:44:14.258Z,982.18
2018-03-18T04:45:14.430Z,982.27
2018-03-18T04:46:14.600Z,982.24
2018-03-18T04:47:14.780Z,982.17
2018-03-18T04:48:14.946Z,982.33
2018-03-18T04:49:15.103Z,982.26
2018-03-18T04:50:15.272Z,982.36
2018-03-18T04:51:15.440Z,982.33
2018-03-18T04:52:15.612Z,982.29
2018-03-18T04:53:15.779Z,982.37
2018-03-18T04:54:15.947Z,982.29
2018-03-18T04:55:16.111Z,982.39
2018-03-18T04:56:16.289Z,982.32
2018-03-18T04:57:16.452Z,982.38
2018-03-18T04:58:16.629Z,982.30
2018-03-18T04:59:16.818Z,982.41
2018-03-18T05:00:16.963Z,982.38
2018-03-18T05:01:17.130Z,982.32
2018-03-18T05:02:17.316Z,982.28
2018-03-18T05:03:17.465Z,982.32
2018-03-18T05:04:17.635Z,982.34
2018-03-18T05:05:17.815Z,982.33
2018-03-18T05:06:17.978Z,982.33
2018-03-18T05:07:18.144Z,982.27
2018-03-18T05:08:18.320Z,982.36
2018-03-18T05:09:18.482Z,982.34
2018-03-18T05:10:18.652Z,982.37
2018-03-18T05:11:18.818Z,982.35
2018-03-18T05:12:19.010Z,982.29
2018-03-18T05:13:19.213Z,982.25
2018-03-18T05:14:19.316Z,982.46
2018-03-18T05:15:19.499Z,982.48
2018-03-18T05:16:19.661Z,982.50
2018-03-18T05:17:19.829Z,982.30
2018-03-18T05:18:20.011Z,982.41
2018-03-18T05:19:20.167Z,982.42
2018-03-18T05:20:20.335Z,982.44
2018-03-18T05:21:20.506Z,982.41
2018-03-18T05:22:20.676Z,982.44
2018-03-18T05:23:20.841Z,982.48
2018-03-18T05:24:21.005Z,982.31
2018-03-18T05:25:21.174Z,982.47
2018-03-18T05:26:21.355Z,982.46
2018-03-18T05:27:21.517Z,982.41
2018-03-18T05:28:21.686Z,982.50
2018-03-18T05:29:21.854Z,982.56
2018-03-18T05:30:22.024Z,982.56
2018-03-18T05:31:22.195Z,982.52
2018-03-18T05:32:22.370Z,982.55
2018-03-18T05:33:22.530Z,982.53
2018-03-18T05:34:22.698Z,982.48
2018-03-18T05:35:22.867Z,982.67
2018-03-18T05:36:23.038Z,982.57
2018-03-18T05:37:23.207Z,982.54
2018-03-18T05:38:23.373Z,982.54
2018-03-18T05:39:23.546Z,982.60
2018-03-18T05:40:23.716Z,982.69
2018-03-18T05:41:23.889Z,982.59
2018-03-18T05:42:24.054Z,982.58
2018-03-18T05:43:24.221Z,982.72
2018-03-18T05:44:24.392Z,982.61
2018-03-18T05:45:24.562Z,982.70
2018-03-18T05:46:24.729Z,982.62
2018-03-18T05:47:24.897Z,982.62
2018-03-18T05:48:25.066Z,982.66
2018-03-18T05:49:25.229Z,982.69
2018-03-18T05:50:25.399Z,982.73
2018-03-18T05:51:25.575Z,982.66
2018-03-18T05:52:25.742Z,982.81
2018-03-18T05:53:25.921Z,982.80
2018-03-18T05:54:26.084Z,982.85
2018-03-18T05:55:26.256Z,982.78
2018-03-18T05:56:26.412Z,982.89
2018-03-18T05:57:26.580Z,982.90
2018-03-18T05:58:26.750Z,982.79
2018-03-18T05:59:26.925Z,982.85
2018-03-18T06:00:27.087Z,982.91
2018-03-18T06:01:27.256Z,982.88
2018-03-18T06:02:27.433Z,982.91
2018-03-18T06:03:27.603Z,982.64
2018-03-18T06:04:28.006Z,982.86
2018-03-18T06:05:27.934Z,982.91
2018-03-18T06:06:28.109Z,982.89
2018-03-18T06:07:28.279Z,982.91
2018-03-18T06:08:28.447Z,982.98
2018-03-18T06:09:28.627Z,982.97
2018-03-18T06:10:28.794Z,983.00
2018-03-18T06:11:28.952Z,983.08
2018-03-18T06:12:29.167Z,983.10
2018-03-18T06:13:29.286Z,983.12
2018-03-18T06:14:29.460Z,983.10
2018-03-18T06:15:29.629Z,983.03
2018-03-18T06:16:29.790Z,983.17
2018-03-18T06:17:29.967Z,983.10
2018-03-18T06:18:30.121Z,983.14
2018-03-18T06:19:30.284Z,983.01
2018-03-18T06:20:30.452Z,983.01
2018-03-18T06:21:30.624Z,983.14
2018-03-18T06:22:30.794Z,983.16
2018-03-18T06:23:30.952Z,983.25
2018-03-18T06:24:31.123Z,983.17
2018-03-18T06:25:31.297Z,983.19
2018-03-18T06:26:31.469Z,983.20
2018-03-18T06:27:31.644Z,983.19
2018-03-18T06:28:31.802Z,983.18
2018-03-18T06:29:31.972Z,983.28
2018-03-18T06:30:32.405Z,983.40
2018-03-18T06:31:32.347Z,983.18
2018-03-18T06:32:32.480Z,983.31
2018-03-18T06:33:32.645Z,983.18
2018-03-18T06:34:40.436Z,983.43
2018-03-18T06:35:32.975Z,983.28
2018-03-18T06:36:33.143Z,983.24
2018-03-18T06:37:33.359Z,983.32
2018-03-18T06:38:33.486Z,983.38
2018-03-18T06:39:33.658Z,983.32
2018-03-18T06:40:33.833Z,983.32
2018-03-18T06:41:41.627Z,983.24
2018-03-18T06:42:34.163Z,983.34
2018-03-18T06:43:41.949Z,983.37
2018-03-18T06:44:34.483Z,983.34
2018-03-18T06:45:34.652Z,983.41
2018-03-18T06:46:34.820Z,983.43
2018-03-18T06:47:34.991Z,983.32
2018-03-18T06:48:35.159Z,983.37
2018-03-18T06:49:35.322Z,983.41
2018-03-18T06:50:35.489Z,983.45
2018-03-18T06:51:35.661Z,983.50
2018-03-18T06:52:35.829Z,983.47
2018-03-18T06:53:35.998Z,983.76
2018-03-18T06:54:36.174Z,983.45
2018-03-18T06:55:36.336Z,983.56
2018-03-18T06:56:36.513Z,983.49
2018-03-18T06:57:36.681Z,983.58
2018-03-18T06:58:36.852Z,983.56
2018-03-18T06:59:37.019Z,983.57
2018-03-18T07:00:37.187Z,983.47
2018-03-18T07:01:37.433Z,983.50
2018-03-18T07:02:37.526Z,983.60
2018-03-18T07:03:37.697Z,983.68
2018-03-18T07:04:37.859Z,983.70
2018-03-18T07:05:38.027Z,983.59
2018-03-18T07:06:38.200Z,983.61
2018-03-18T07:07:38.367Z,983.67
2018-03-18T07:08:38.532Z,983.77
2018-03-18T07:09:38.706Z,983.66
2018-03-18T07:10:38.871Z,983.75
2018-03-18T07:11:39.041Z,983.71
2018-03-18T07:12:39.204Z,983.57
2018-03-18T07:13:39.362Z,983.82
2018-03-18T07:14:39.530Z,983.84
2018-03-18T07:15:39.705Z,983.84
2018-03-18T07:16:39.882Z,983.73
2018-03-18T07:17:40.049Z,983.91
2018-03-18T07:18:40.224Z,983.83
2018-03-18T07:19:40.389Z,983.73
2018-03-18T07:20:40.561Z,983.84
2018-03-18T07:21:40.729Z,983.77
2018-03-18T07:22:40.893Z,983.80
2018-03-18T07:23:41.068Z,983.85
2018-03-18T07:24:41.229Z,983.86
2018-03-18T07:25:41.400Z,983.88
2018-03-18T07:26:41.573Z,983.82
2018-03-18T07:27:41.743Z,983.97
2018-03-18T07:28:41.912Z,983.92
2018-03-18T07:29:42.076Z,983.95
2018-03-18T07:30:42.249Z,983.98
2018-03-18T07:31:42.419Z,984.00
2018-03-18T07:32:42.589Z,983.93
2018-03-18T07:33:42.758Z,984.00
2018-03-18T07:34:42.929Z,983.99
2018-03-18T07:35:43.098Z,983.89
2018-03-18T07:36:43.266Z,983.93
2018-03-18T07:37:43.436Z,984.12
2018-03-18T07:38:43.663Z,983.88
2018-03-18T07:39:43.780Z,984.12
2018-03-18T07:40:43.955Z,984.00
2018-03-18T07:41:44.127Z,984.11
2018-03-18T07:42:44.293Z,984.10
2018-03-18T07:43:44.467Z,984.01
2018-03-18T07:44:44.634Z,984.00
2018-03-18T07:45:44.803Z,984.09
2018-03-18T07:46:44.974Z,984.12
2018-03-18T07:47:45.140Z,983.73
2018-03-18T07:48:45.311Z,984.20
2018-03-18T07:49:45.480Z,984.24
2018-03-18T07:50:45.650Z,984.04
2018-03-18T07:51:45.841Z,984.11
2018-03-18T07:52:45.987Z,983.84
2018-03-18T07:53:46.161Z,984.06
2018-03-18T07:54:46.364Z,983.91
2018-03-18T07:55:46.510Z,984.23
2018-03-18T07:56:46.683Z,984.03
2018-03-18T07:57:46.849Z,983.97
2018-03-18T07:58:47.017Z,984.12
2018-03-18T07:59:47.188Z,984.22
2018-03-18T08:00:47.356Z,984.07
2018-03-18T08:01:47.534Z,984.13
2018-03-18T08:02:47.705Z,984.11
2018-03-18T08:03:47.894Z,984.20
2018-03-18T08:04:48.037Z,984.16
2018-03-18T08:05:48.206Z,984.13
2018-03-18T08:06:48.387Z,983.99
2018-03-18T08:07:48.558Z,984.02
2018-03-18T08:08:48.729Z,984.12
2018-03-18T08:09:48.899Z,984.35
2018-03-18T08:10:49.067Z,984.21
2018-03-18T08:11:49.248Z,984.08
2018-03-18T08:12:49.408Z,984.12
2018-03-18T08:13:49.579Z,984.12
2018-03-18T08:14:49.749Z,984.11
2018-03-18T08:15:49.919Z,984.07
2018-03-18T08:16:50.091Z,984.20
2018-03-18T08:17:50.264Z,984.03
2018-03-18T08:18:50.425Z,984.13
2018-03-18T08:19:50.609Z,984.24
2018-03-18T08:20:50.797Z,984.09
2018-03-18T08:21:50.938Z,984.13
2018-03-18T08:22:51.097Z,984.13
2018-03-18T08:23:51.267Z,984.17
2018-03-18T08:24:51.438Z,984.10
2018-03-18T08:25:51.604Z,984.22
2018-03-18T08:26:51.781Z,984.26
2018-03-18T08:27:51.951Z,984.18
2018-03-18T08:28:52.118Z,984.25
2018-03-18T08:29:52.289Z,984.32
2018-03-18T08:30:52.457Z,984.27
2018-03-18T08:31:52.631Z,984.21
2018-03-18T08:32:52.803Z,984.23
2018-03-18T08:33:52.974Z,984.26
2018-03-18T08:34:53.385Z,984.30
2018-03-18T08:35:53.334Z,984.23
2018-03-18T08:36:53.482Z,984.30
2018-03-18T08:37:53.666Z,984.46
2018-03-18T08:38:53.828Z,984.19
2018-03-18T08:39:53.997Z,984.32
2018-03-18T08:40:54.168Z,984.28
2018-03-18T08:41:54.333Z,984.20
2018-03-18T08:42:54.503Z,984.30
2018-03-18T08:43:54.675Z,984.29
2018-03-18T08:44:54.845Z,984.44
2018-03-18T08:45:55.022Z,984.29
2018-03-18T08:46:55.198Z,984.31
2018-03-18T08:47:55.359Z,984.30
2018-03-18T08:48:55.528Z,984.40
2018-03-18T08:49:55.698Z,984.29
2018-03-18T08:50:55.873Z,984.34
2018-03-18T08:51:56.041Z,984.27
2018-03-18T08:52:56.213Z,984.28
2018-03-18T08:53:56.374Z,984.38
2018-03-18T08:54:56.547Z,984.27
2018-03-18T08:55:56.720Z,984.16
2018-03-18T08:56:56.885Z,984.27
2018-03-18T08:57:57.064Z,984.37
2018-03-18T08:58:57.242Z,984.31
2018-03-18T08:59:57.408Z,984.44
2018-03-18T09:00:57.574Z,984.43
2018-03-18T09:01:57.744Z,984.40
2018-03-18T09:02:57.913Z,984.43
2018-03-18T09:03:58.095Z,984.21
2018-03-18T09:04:58.264Z,984.42
2018-03-18T09:05:58.435Z,984.34
2018-03-18T09:06:58.610Z,984.38
2018-03-18T09:07:58.773Z,984.44
2018-03-18T09:08:58.943Z,984.38
2018-03-18T09:09:59.125Z,984.49
2018-03-18T09:10:59.300Z,984.45
2018-03-18T09:11:59.461Z,984.57
2018-03-18T09:12:59.621Z,984.51
2018-03-18T09:13:59.790Z,984.53
2018-03-18T09:14:59.972Z,984.39
2018-03-18T09:16:00.132Z,984.39
2018-03-18T09:17:00.305Z,984.42
2018-03-18T09:18:00.480Z,984.44
2018-03-18T09:19:00.639Z,984.66
2018-03-18T09:20:00.814Z,984.49
2018-03-18T09:21:00.976Z,984.46
2018-03-18T09:22:01.202Z,984.59
2018-03-18T09:23:01.337Z,984.64
2018-03-18T09:24:01.488Z,984.59
2018-03-18T09:25:01.657Z,984.60
2018-03-18T09:26:01.832Z,984.64
2018-03-18T09:27:01.995Z,984.55
2018-03-18T09:28:02.177Z,984.48
2018-03-18T09:29:02.343Z,984.61
2018-03-18T09:30:02.509Z,984.55
2018-03-18T09:31:02.678Z,984.85
2018-03-18T09:32:02.848Z,984.50
2018-03-18T09:33:03.030Z,984.68
2018-03-18T09:34:03.196Z,984.52
2018-03-18T09:35:03.365Z,984.63
2018-03-18T09:36:03.549Z,984.58
2018-03-18T09:37:03.707Z,984.67
2018-03-18T09:38:03.876Z,984.80
2018-03-18T09:39:04.039Z,984.54
2018-03-18T09:40:04.217Z,984.67
2018-03-18T09:41:04.388Z,984.59
2018-03-18T09:42:04.566Z,984.59
2018-03-18T09:43:04.737Z,984.61
2018-03-18T09:44:04.891Z,984.72
2018-03-18T09:45:05.060Z,984.68
2018-03-18T09:46:05.223Z,984.70
2018-03-18T09:47:05.392Z,984.71
2018-03-18T09:48:05.566Z,984.78
2018-03-18T09:49:05.733Z,984.74
2018-03-18T09:50:05.906Z,984.72
2018-03-18T09:51:06.076Z,984.79
2018-03-18T09:52:06.252Z,984.81
2018-03-18T09:53:06.426Z,984.77
2018-03-18T09:54:06.591Z,984.99
2018-03-18T09:55:06.767Z,984.70
2018-03-18T09:56:06.931Z,984.81
2018-03-18T09:57:07.108Z,984.88
2018-03-18T09:58:07.283Z,984.89
2018-03-18T09:59:07.443Z,984.83
2018-03-18T10:00:07.614Z,984.89
2018-03-18T10:01:07.899Z,984.82
2018-03-18T10:02:07.933Z,984.84
2018-03-18T10:03:08.103Z,984.96
2018-03-18T10:04:08.274Z,984.83
2018-03-18T10:05:08.444Z,984.89
2018-03-18T10:06:08.620Z,984.86
2018-03-18T10:07:08.786Z,985.06
2018-03-18T10:08:08.964Z,984.93
2018-03-18T10:09:09.129Z,985.08
2018-03-18T10:10:09.310Z,985.01
2018-03-18T10:11:09.473Z,984.98
2018-03-18T10:12:09.649Z,984.95
2018-03-18T10:14:09.983Z,985.02
2018-03-18T10:15:10.146Z,984.97
2018-03-18T10:16:10.319Z,984.95
2018-03-18T10:17:10.500Z,984.97
2018-03-18T10:18:10.664Z,985.02
2018-03-18T10:19:10.838Z,985.07
2018-03-18T10:20:11.029Z,985.02
2018-03-18T10:21:11.176Z,985.10
2018-03-18T10:22:11.349Z,985.09
2018-03-18T10:23:11.523Z,985.21
2018-03-18T10:24:11.692Z,985.17
2018-03-18T10:25:11.861Z,985.15
2018-03-18T10:26:12.032Z,985.10
2018-03-18T10:27:12.206Z,985.19
2018-03-18T10:28:12.382Z,985.07
2018-03-18T10:29:12.541Z,984.93
2018-03-18T10:30:12.715Z,985.08
2018-03-18T10:31:12.903Z,985.05
2018-03-18T10:32:13.051Z,985.25
2018-03-18T10:33:13.489Z,985.08
2018-03-18T10:34:13.403Z,985.21
2018-03-18T10:35:13.589Z,985.14
2018-03-18T10:36:13.748Z,985.08
2018-03-18T10:37:13.925Z,985.10
2018-03-18T10:38:14.084Z,985.04
2018-03-18T10:39:14.265Z,985.18
2018-03-18T10:40:14.422Z,985.04
2018-03-18T10:41:14.594Z,985.06
2018-03-18T10:42:14.778Z,985.19
2018-03-18T10:43:14.943Z,985.18
2018-03-18T10:44:15.107Z,985.20
2018-03-18T10:45:15.281Z,985.06
2018-03-18T10:46:15.705Z,985.04
2018-03-18T10:47:15.631Z,985.12
2018-03-18T10:48:15.787Z,985.01
2018-03-18T10:49:15.983Z,985.14
2018-03-18T10:50:16.130Z,985.19
2018-03-18T10:51:16.309Z,985.18
2018-03-18T10:52:16.479Z,985.13
2018-03-18T10:53:16.648Z,985.20
2018-03-18T10:54:16.829Z,985.26
2018-03-18T10:55:17.005Z,985.12
2018-03-18T10:56:17.155Z,985.57
2018-03-18T10:57:17.336Z,985.28
2018-03-18T10:58:17.501Z,985.19
2018-03-18T10:59:17.715Z,985.18
2018-03-18T11:00:17.835Z,985.18
2018-03-18T11:01:17.999Z,985.08
2018-03-18T11:02:18.187Z,985.13
2018-03-18T11:03:18.354Z,985.05
2018-03-18T11:04:18.527Z,985.13
2018-03-18T11:05:18.697Z,985.10
2018-03-18T11:06:18.862Z,985.14
2018-03-18T11:07:19.030Z,985.04
2018-03-18T11:08:19.216Z,985.11
2018-03-18T11:09:19.377Z,985.06
2018-03-18T11:10:19.543Z,985.15
2018-03-18T11:11:19.707Z,985.37
2018-03-18T11:12:19.885Z,984.96
2018-03-18T11:13:20.063Z,985.15
2018-03-18T11:14:20.232Z,985.03
2018-03-18T11:15:20.402Z,985.00
2018-03-18T11:16:20.642Z,985.07
2018-03-18T11:17:20.742Z,985.05
2018-03-18T11:18:20.915Z,984.95
2018-03-18T11:19:21.100Z,985.24
2018-03-18T11:20:21.259Z,985.10
2018-03-18T11:21:21.435Z,984.94
2018-03-18T11:22:21.608Z,985.07
2018-03-18T11:23:21.783Z,985.13
2018-03-18T11:24:21.954Z,985.19
2018-03-18T11:25:22.376Z,985.16
2018-03-18T11:26:22.305Z,984.99
2018-03-18T11:27:22.470Z,985.10
2018-03-18T11:28:22.639Z,984.98
2018-03-18T11:29:22.808Z,985.02
2018-03-18T11:30:23.057Z,985.13
2018-03-18T11:31:23.241Z,985.20
2018-03-18T11:32:23.411Z,985.17
2018-03-18T11:33:23.583Z,985.38
2018-03-18T11:34:23.765Z,985.10
2018-03-18T11:35:23.940Z,985.10
2018-03-18T11:36:24.105Z,985.15
2018-03-18T11:37:24.280Z,985.17
2018-03-18T11:38:24.449Z,985.05
2018-03-18T11:39:24.630Z,984.93
2018-03-18T11:40:24.790Z,985.08
2018-03-18T11:41:24.965Z,984.95
2018-03-18T11:42:25.134Z,984.97
2018-03-18T11:43:25.315Z,984.86
2018-03-18T11:44:25.523Z,985.02
2018-03-18T11:45:25.647Z,984.90
2018-03-18T11:46:25.816Z,984.97
2018-03-18T11:47:25.997Z,984.95
2018-03-18T11:48:26.161Z,984.84
2018-03-18T11:49:26.333Z,984.84
2018-03-18T11:50:26.508Z,984.85
2018-03-18T11:51:26.674Z,984.93
2018-03-18T11:52:26.846Z,984.90
2018-03-18T11:53:27.022Z,984.91
2018-03-18T11:54:27.203Z,984.81
2018-03-18T11:55:27.362Z,985.02
2018-03-18T11:56:27.541Z,985.01
2018-03-18T11:57:27.711Z,984.77
2018-03-18T11:58:27.889Z,985.03
2018-03-18T11:59:28.051Z,984.85
2018-03-18T12:00:28.231Z,984.91
2018-03-18T12:01:28.396Z,984.96
2018-03-18T12:02:28.568Z,984.91
2018-03-18T12:03:28.734Z,984.92
2018-03-18T12:04:28.900Z,984.88
2018-03-18T12:05:29.082Z,984.97
2018-03-18T12:06:29.274Z,984.96
2018-03-18T12:07:29.415Z,984.96
2018-03-18T12:08:29.586Z,984.89
2018-03-18T12:09:29.759Z,984.89
2018-03-18T12:10:29.934Z,985.01
2018-03-18T12:11:30.099Z,984.91
2018-03-18T12:12:30.281Z,984.92
2018-03-18T12:13:30.431Z,984.90
2018-03-18T12:14:30.599Z,984.79
2018-03-18T12:15:30.820Z,984.94
2018-03-18T12:16:30.974Z,984.92
2018-03-18T12:17:31.139Z,984.99
2018-03-18T12:18:31.304Z,984.99
2018-03-18T12:19:31.489Z,984.97
2018-03-18T12:20:31.653Z,984.91
2018-03-18T12:21:31.823Z,984.96
2018-03-18T12:22:31.992Z,984.97
2018-03-18T12:23:32.169Z,985.03
2018-03-18T12:24:32.337Z,985.02
2018-03-18T12:25:32.512Z,985.17
2018-03-18T12:26:32.681Z,984.99
2018-03-18T12:27:32.854Z,985.01
2018-03-18T12:28:33.030Z,984.97
2018-03-18T12:29:33.197Z,984.95
2018-03-18T12:30:33.375Z,984.97
2018-03-18T12:31:33.550Z,984.85
2018-03-18T12:32:33.708Z,984.93